Byron, Michigan
Current Conditions -  °F | °C
As of 12:35 PM on Monday 22 Dec 2014 (Local Time) from KOZW Reporting Station
Clear Clear  
Wind Chill: -2°   Ceiling: Unl
Heat Index:   Visibility: 10mi
Dew Point: -2°   Wind: 12mph
Humidity: 73%   Direction: 90°E
Pressure: 29.96"   Gusts: 16mph
Location:  42.82°N, 83.94°W
Report Text: KOZW 221735Z AUTO 09010G14KT 10SM CLR 02/M02 A2996 RMK AO2 T00201024
Loading
Personal Weather Stations






























Interactive Weather Map New forecast layout! Learn more

10-Day Weather Forecast

Advertisements
Track Severe Weather on mobile